Time;durP1;ratioP1;P1;durP2;ratioP2;P2;SDS_P1;SDS_P2;PMS_P1;PMS_P2;Temp;Humidity;BMP_temperature;BMP_pressure;BME280_temperature;BME280_humidity;BME280_pressure;Samples;Min_cycle;Max_cycle;Signal;HPM_P1;HPM_P2
2020/12/20 00:00:00;;;;;;;34.60;22.42;;;;;;;-1.73;100.00;96485.56;1031966;28;20064;-76
2020/12/20 00:00:31;;;;;;;31.23;20.98;;;;;;;-1.73;100.00;96483.00;1036005;28;20026;-76
2020/12/20 00:01:02;;;;;;;41.72;22.92;;;;;;;-1.78;100.00;96485.63;1023899;29;20027;-76
2020/12/20 00:01:42;;;;;;;51.83;27.60;;;;;;;-1.76;100.00;96489.03;1020037;29;20267;-76
2020/12/20 00:02:13;;;;;;;50.30;26.48;;;;;;;-1.71;100.00;96490.69;1031951;28;20121;-76
2020/12/20 00:02:51;;;;;;;29.35;20.08;;;;;;;-1.74;100.00;96486.44;1032104;28;20756;-76
2020/12/20 00:03:22;;;;;;;48.05;25.50;;;;;;;-1.74;100.00;96483.88;1019900;28;20122;-76
2020/12/20 00:03:53;;;;;;;39.17;24.75;;;;;;;-1.64;100.00;96493.16;1028017;28;20316;-76
2020/12/20 00:04:24;;;;;;;42.83;26.00;;;;;;;-1.74;100.00;96480.47;1016051;29;20024;-76
2020/12/20 00:04:55;;;;;;;43.15;24.52;;;;;;;-1.74;100.00;96485.59;1027852;28;20258;-76
2020/12/20 00:05:26;;;;;;;32.97;22.25;;;;;;;-1.76;100.00;96480.47;1019721;29;20039;-76
2020/12/20 00:05:57;;;;;;;31.33;21.15;;;;;;;-1.67;100.00;96487.19;1024013;29;20034;-76
2020/12/20 00:06:28;;;;;;;32.83;20.77;;;;;;;-1.65;100.00;96482.88;1036050;28;20672;-76
2020/12/20 00:06:58;;;;;;;34.88;22.65;;;;;;;-1.76;100.00;96478.75;1027894;28;20113;-76
2020/12/20 00:07:29;;;;;;;21.40;15.90;;;;;;;-1.69;100.00;96483.81;1035998;28;20414;-76
2020/12/20 00:08:00;;;;;;;20.40;15.18;;;;;;;-1.74;100.00;96473.59;1027943;28;20030;-76
2020/12/20 00:08:31;;;;;;;31.05;20.75;;;;;;;-1.67;100.00;96479.50;1027930;28;20029;-76
2020/12/20 00:09:02;;;;;;;31.90;21.60;;;;;;;-1.69;100.00;96468.38;1023840;28;20030;-76
2020/12/20 00:09:33;;;;;;;29.75;21.75;;;;;;;-1.67;100.00;96475.22;1019908;28;20032;-76
2020/12/20 00:10:03;;;;;;;24.05;18.23;;;;;;;-1.74;100.00;96476.16;1023875;28;20342;-76
2020/12/20 00:10:38;;;;;;;27.35;19.48;;;;;;;-1.73;100.00;96470.16;1019951;28;20512;-76
2020/12/20 00:11:09;;;;;;;23.10;17.15;;;;;;;-1.74;100.00;96473.59;1031769;28;20029;-76
2020/12/20 00:11:40;;;;;;;28.33;20.00;;;;;;;-1.73;100.00;96482.16;1031892;28;20773;-76
2020/12/20 00:12:11;;;;;;;26.98;18.80;;;;;;;-1.63;100.00;96470.91;1023941;28;20023;-76
2020/12/20 00:12:42;;;;;;;23.75;17.25;;;;;;;-1.77;100.00;96459.06;1031938;28;20285;-76
2020/12/20 00:13:17;;;;;;;31.85;19.83;;;;;;;-1.72;100.00;96476.16;1027804;28;20061;-76
2020/12/20 00:13:48;;;;;;;23.70;17.45;;;;;;;-1.78;100.00;96479.66;1027981;28;20258;-76
2020/12/20 00:14:59;;;;;;;35.60;20.40;;;;;;;-1.85;100.00;96473.75;1027858;28;20771;-76
2020/12/20 00:15:32;;;;;;;32.83;20.65;;;;;;;-1.88;100.00;96476.34;1031771;28;20258;-76
2020/12/20 00:16:03;;;;;;;31.08;20.35;;;;;;;-1.85;100.00;96475.47;1031848;28;20117;-76
2020/12/20 00:16:34;;;;;;;25.45;18.85;;;;;;;-1.78;100.00;96464.25;1027860;28;20310;-76
2020/12/20 00:17:06;;;;;;;33.15;19.63;;;;;;;-1.82;100.00;96475.41;1031875;28;20034;-76
2020/12/20 00:17:37;;;;;;;30.85;18.20;;;;;;;-1.82;100.00;96465.13;1023966;28;20448;-76
2020/12/20 00:18:08;;;;;;;25.05;17.35;;;;;;;-1.81;100.00;96470.25;1031833;28;20257;-76
2020/12/20 00:18:40;;;;;;;31.52;20.60;;;;;;;-1.76;100.00;96471.06;1023848;28;20711;-76
2020/12/20 00:19:11;;;;;;;28.52;18.70;;;;;;;-1.74;100.00;96467.63;1023661;28;20094;-76
2020/12/20 00:19:41;;;;;;;29.90;19.48;;;;;;;-1.78;100.00;96475.34;1027919;28;20683;-76
2020/12/20 00:20:12;;;;;;;38.20;21.25;;;;;;;-1.83;100.00;96472.00;1031942;28;20022;-76
2020/12/20 00:20:43;;;;;;;28.70;19.70;;;;;;;-1.81;100.00;96475.38;1027965;28;20107;-76
2020/12/20 00:21:16;;;;;;;39.53;20.40;;;;;;;-1.89;100.00;96474.66;1027806;28;20258;-76
2020/12/20 00:21:47;;;;;;;37.00;22.45;;;;;;;-1.84;100.00;96475.44;1031903;28;20073;-76
2020/12/20 00:22:17;;;;;;;54.97;25.83;;;;;;;-1.95;100.00;96454.19;1031887;28;20335;-76
2020/12/20 00:22:48;;;;;;;32.70;20.05;;;;;;;-1.90;100.00;96469.53;1023966;28;20188;-76
2020/12/20 00:23:19;;;;;;;38.05;22.83;;;;;;;-1.91;100.00;96470.41;1031768;28;20181;-76
2020/12/20 00:23:49;;;;;;;41.75;22.77;;;;;;;-1.93;100.00;96474.69;1023927;28;20027;-76
2020/12/20 00:24:20;;;;;;;46.30;23.80;;;;;;;-1.90;100.00;96474.66;1023934;28;20039;-76
2020/12/20 00:24:52;;;;;;;31.65;19.45;;;;;;;-1.88;100.00;96478.06;1027965;28;20057;-76
2020/12/20 00:25:23;;;;;;;31.63;19.98;;;;;;;-1.84;100.00;96475.44;1027697;28;20479;-76
2020/12/20 00:25:54;;;;;;;25.65;18.60;;;;;;;-1.79;100.00;96470.25;1019880;28;20267;-76
2020/12/20 00:26:26;;;;;;;35.58;20.73;;;;;;;-1.82;100.00;96471.13;1031939;28;20086;-76
2020/12/20 00:26:57;;;;;;;35.13;21.75;;;;;;;-1.87;100.00;96469.50;1027853;28;20667;-76
2020/12/20 00:27:28;;;;;;;37.90;22.85;;;;;;;-1.85;100.00;96473.75;1027689;28;20280;-76
2020/12/20 00:27:59;;;;;;;36.85;22.48;;;;;;;-1.97;100.00;96456.78;1027903;28;20029;-76
2020/12/20 00:28:30;;;;;;;35.58;22.70;;;;;;;-1.95;100.00;96461.91;1019907;29;20271;-76
2020/12/20 00:29:01;;;;;;;32.00;21.65;;;;;;;-1.89;100.00;96461.81;1031954;28;20018;-76
2020/12/20 00:29:32;;;;;;;31.67;19.92;;;;;;;-1.77;100.00;96465.94;1027818;28;20027;-76
2020/12/20 00:30:04;;;;;;;31.17;21.23;;;;;;;-1.79;100.00;96465.94;1023881;28;20034;-76
2020/12/20 00:30:35;;;;;;;33.33;21.42;;;;;;;-1.87;100.00;96457.50;1023673;28;20293;-76
2020/12/20 00:31:07;;;;;;;29.83;19.50;;;;;;;-1.86;100.00;96460.91;1031775;28;20280;-76
2020/12/20 00:31:38;;;;;;;41.50;22.45;;;;;;;-1.90;100.00;96454.13;1031800;28;20018;-76
2020/12/20 00:32:11;;;;;;;27.13;19.05;;;;;;;-1.84;100.00;96452.34;1027854;28;20746;-76
2020/12/20 00:32:42;;;;;;;25.27;17.92;;;;;;;-1.91;100.00;96448.16;1027856;28;20019;-76
2020/12/20 00:33:12;;;;;;;36.45;20.92;;;;;;;-1.86;100.00;96450.63;1031676;28;20262;-76
2020/12/20 00:33:43;;;;;;;30.98;19.98;;;;;;;-1.78;100.00;96459.09;1027867;28;20025;-76
2020/12/20 00:34:14;;;;;;;26.77;20.42;;;;;;;-1.87;100.00;96457.50;1031797;28;20030;-76
2020/12/20 00:34:45;;;;;;;27.92;19.15;;;;;;;-1.93;100.00;96449.88;1039986;28;20573;-76
2020/12/20 00:35:16;;;;;;;34.28;21.70;;;;;;;-1.99;100.00;96448.25;1027642;28;20027;-76
2020/12/20 00:35:47;;;;;;;31.48;21.45;;;;;;;-1.99;100.00;96452.50;1036086;28;20359;-76
2020/12/20 00:36:18;;;;;;;35.35;21.20;;;;;;;-1.97;100.00;96455.94;1027915;28;20524;-76
2020/12/20 00:36:49;;;;;;;27.13;20.08;;;;;;;-1.89;100.00;96448.13;1023900;28;20047;-76
2020/12/20 00:37:20;;;;;;;31.60;20.88;;;;;;;-1.91;100.00;96443.00;1031804;28;20494;-76
2020/12/20 00:37:51;;;;;;;32.67;21.13;;;;;;;-1.84;100.00;96447.19;1027827;28;20349;-76
2020/12/20 00:38:22;;;;;;;31.83;21.20;;;;;;;-1.88;100.00;96442.94;1027864;28;20258;-76
2020/12/20 00:38:52;;;;;;;28.90;21.65;;;;;;;-1.79;100.00;96453.09;1031792;28;20476;-76
2020/12/20 00:39:24;;;;;;;35.17;22.80;;;;;;;-1.82;100.00;96442.88;1015927;29;20032;-76
2020/12/20 00:39:56;;;;;;;38.05;22.52;;;;;;;-1.87;100.00;96456.66;1027892;28;20077;-76
2020/12/20 00:40:27;;;;;;;32.13;19.80;;;;;;;-1.94;100.00;96442.19;1039947;28;20359;-76
2020/12/20 00:40:58;;;;;;;39.10;21.85;;;;;;;-1.91;100.00;96455.84;1023779;28;20258;-76
2020/12/20 00:41:28;;;;;;;37.70;20.42;;;;;;;-1.96;100.00;96450.75;1035849;28;20027;-76
2020/12/20 00:42:01;;;;;;;33.90;21.10;;;;;;;-1.90;100.00;96446.41;1023928;29;20027;-76
2020/12/20 00:42:32;;;;;;;37.42;23.17;;;;;;;-1.85;100.00;96453.19;1031940;28;20471;-76
2020/12/20 00:43:03;;;;;;;44.38;26.08;;;;;;;-1.89;100.00;96448.13;1023782;28;20267;-76
2020/12/20 00:43:34;;;;;;;46.78;25.90;;;;;;;-1.93;100.00;96444.75;1024009;29;20690;-76
2020/12/20 00:44:05;;;;;;;39.78;23.33;;;;;;;-1.85;100.00;96450.63;1024094;28;20023;-76
2020/12/20 00:44:35;;;;;;;42.50;24.52;;;;;;;-1.88;100.00;96452.38;1031852;28;20121;-76
2020/12/20 00:45:08;;;;;;;38.08;23.85;;;;;;;-1.81;100.00;96448.88;1023672;28;20050;-76
2020/12/20 00:45:39;;;;;;;33.20;22.33;;;;;;;-1.76;100.00;96452.22;1023941;28;20490;-76
2020/12/20 00:46:10;;;;;;;35.97;21.50;;;;;;;-1.91;100.00;96427.59;1027763;28;20277;-76
2020/12/20 00:46:40;;;;;;;45.05;23.65;;;;;;;-1.81;100.00;96447.13;1027904;28;20026;-76
2020/12/20 00:47:11;;;;;;;39.65;22.15;;;;;;;-1.81;100.00;96447.13;1035782;28;20057;-76
2020/12/20 00:47:42;;;;;;;40.17;23.33;;;;;;;-1.78;100.00;96452.25;1023902;29;20413;-76
2020/12/20 00:48:13;;;;;;;37.05;21.48;;;;;;;-1.90;100.00;96446.41;1031897;28;20261;-76
2020/12/20 00:48:44;;;;;;;29.50;20.15;;;;;;;-1.83;100.00;96448.03;1039909;28;20075;-76
2020/12/20 00:49:15;;;;;;;30.58;20.77;;;;;;;-1.84;100.00;96454.91;1027792;28;20122;-76
2020/12/20 00:49:46;;;;;;;36.35;22.52;;;;;;;-1.89;100.00;96448.13;1023847;28;20109;-76
2020/12/20 00:50:17;;;;;;;31.52;19.20;;;;;;;-1.83;100.00;96446.31;1027998;28;20034;-76
2020/12/20 00:50:47;;;;;;;34.28;21.50;;;;;;;-1.82;100.00;96448.03;1031774;28;20266;-76
2020/12/20 00:51:18;;;;;;;37.45;20.95;;;;;;;-1.87;100.00;96443.81;1031766;28;20064;-76
2020/12/20 00:51:49;;;;;;;36.05;20.58;;;;;;;-1.87;100.00;96444.66;1035904;28;20036;-76
2020/12/20 00:52:20;;;;;;;33.72;21.42;;;;;;;-1.85;100.00;96440.34;1027780;28;20143;-76
2020/12/20 00:52:51;;;;;;;33.45;20.35;;;;;;;-1.85;100.00;96448.06;1028038;28;20494;-76
2020/12/20 00:53:21;;;;;;;27.83;19.70;;;;;;;-1.90;100.00;96436.16;1031720;28;20125;-76
2020/12/20 00:53:52;;;;;;;34.13;21.08;;;;;;;-1.81;100.00;96447.13;1027819;28;20109;-76
2020/12/20 00:54:24;;;;;;;28.98;18.92;;;;;;;-1.71;100.00;96455.56;1031868;28;20030;-76
2020/12/20 00:54:55;;;;;;;26.33;17.90;;;;;;;-1.68;100.00;96444.41;1023790;28;20082;-76
2020/12/20 00:55:26;;;;;;;27.65;18.38;;;;;;;-1.67;100.00;96441.81;1031812;28;20262;-76
2020/12/20 00:55:57;;;;;;;26.60;19.70;;;;;;;-1.70;100.00;96446.16;1031935;28;20029;-76
2020/12/20 00:56:27;;;;;;;31.33;19.73;;;;;;;-1.73;100.00;96444.47;1036005;28;20026;-76
2020/12/20 00:56:58;;;;;;;32.22;20.17;;;;;;;-1.88;100.00;96421.56;1031785;28;20034;-76
2020/12/20 00:57:30;;;;;;;29.55;20.33;;;;;;;-1.82;100.00;96436.88;1027816;28;20030;-76
2020/12/20 00:58:01;;;;;;;32.25;21.25;;;;;;;-1.84;100.00;96442.06;1031742;28;20261;-76
2020/12/20 00:58:33;;;;;;;21.92;17.17;;;;;;;-1.95;100.00;96428.53;1031755;28;20261;-76
2020/12/20 00:59:03;;;;;;;23.05;16.73;;;;;;;-1.84;100.00;96446.31;1023687;28;20037;-76
2020/12/20 00:59:34;;;;;;;23.92;17.83;;;;;;;-1.82;100.00;96437.75;1023872;29;20285;-76
2020/12/20 01:00:05;;;;;;;29.98;18.63;;;;;;;-1.79;100.00;96432.56;1023823;29;20467;-76
2020/12/20 01:00:36;;;;;;;28.75;18.40;;;;;;;-1.92;100.00;96433.59;1020036;29;20055;-76
2020/12/20 01:01:08;;;;;;;30.27;20.70;;;;;;;-1.89;100.00;96436.13;1019714;29;20102;-76
2020/12/20 01:01:39;;;;;;;25.23;17.73;;;;;;;-1.80;100.00;96445.44;1027948;28;20034;-76
2020/12/20 01:02:10;;;;;;;18.88;15.57;;;;;;;-1.79;100.00;96435.13;1031896;28;20280;-76
2020/12/20 01:02:41;;;;;;;20.17;16.73;;;;;;;-1.80;100.00;96425.72;1023853;29;20295;-76
2020/12/20 01:03:12;;;;;;;20.17;15.70;;;;;;;-1.71;100.00;96429.03;1027687;28;20266;-76
2020/12/20 01:03:43;;;;;;;20.42;16.77;;;;;;;-1.72;100.00;96435.06;1019754;28;20264;-76
2020/12/20 01:04:14;;;;;;;24.02;18.17;;;;;;;-1.70;100.00;96433.31;1023884;28;20023;-76
2020/12/20 01:04:44;;;;;;;19.83;15.93;;;;;;;-1.79;100.00;96422.28;1031790;28;20046;-76
2020/12/20 01:05:15;;;;;;;21.42;14.98;;;;;;;-1.81;100.00;96418.88;1027627;28;20027;-76
2020/12/20 01:05:46;;;;;;;22.15;17.20;;;;;;;-1.71;100.00;96429.03;1031706;28;20031;-76
2020/12/20 01:06:17;;;;;;;22.15;17.85;;;;;;;-1.68;100.00;96421.28;1023840;28;20031;-76
2020/12/20 01:06:48;;;;;;;24.23;17.35;;;;;;;-1.66;100.00;96429.81;1031721;28;20026;-76
2020/12/20 01:07:21;;;;;;;22.95;16.92;;;;;;;-1.71;100.00;96429.88;1035777;28;20261;-76
2020/12/20 01:07:52;;;;;;;22.13;14.93;;;;;;;-1.71;100.00;96427.31;1031878;28;20085;-76
2020/12/20 01:08:24;;;;;;;20.60;15.40;;;;;;;-1.66;100.00;96422.13;1023754;29;20267;-76
2020/12/20 01:08:55;;;;;;;21.40;16.45;;;;;;;-1.71;100.00;96423.91;1027714;28;20758;-76
2020/12/20 01:09:26;;;;;;;19.58;15.82;;;;;;;-1.69;100.00;96412.75;1031838;28;20265;-76
2020/12/20 01:09:57;;;;;;;18.10;14.45;;;;;;;-1.68;100.00;96419.56;1027756;28;20031;-76
2020/12/20 01:10:28;;;;;;;18.15;14.50;;;;;;;-1.69;100.00;96414.44;1027815;28;20694;-76
2020/12/20 01:10:59;;;;;;;21.00;15.23;;;;;;;-1.72;100.00;96427.34;1023671;28;20145;-76
2020/12/20 01:11:30;;;;;;;21.05;16.63;;;;;;;-1.69;100.00;96417.88;1035820;28;20441;-76
2020/12/20 01:12:01;;;;;;;23.10;17.05;;;;;;;-1.69;100.00;96429.84;1023498;28;20447;-76
2020/12/20 01:12:33;;;;;;;23.75;18.38;;;;;;;-1.65;100.00;96432.38;1023847;29;20270;-76
2020/12/20 01:13:04;;;;;;;18.70;15.65;;;;;;;-1.70;100.00;96412.75;1027652;28;20286;-76
2020/12/20 01:13:35;;;;;;;24.17;16.80;;;;;;;-1.70;100.00;96418.75;1031918;28;20269;-76
2020/12/20 01:14:06;;;;;;;20.55;15.85;;;;;;;-1.70;100.00;96429.00;1031778;28;20470;-76
2020/12/20 01:14:37;;;;;;;21.95;16.65;;;;;;;-1.72;100.00;96429.91;1031810;28;20274;-76
2020/12/20 01:15:07;;;;;;;21.60;15.57;;;;;;;-1.70;100.00;96425.59;1023588;29;20028;-76
2020/12/20 01:15:39;;;;;;;20.73;16.70;;;;;;;-1.73;100.00;96429.06;1028256;28;20739;-76
2020/12/20 01:16:18;;;;;;;19.83;15.90;;;;;;;-1.77;100.00;96415.41;1036227;28;20122;-76
2020/12/20 01:16:49;;;;;;;20.17;14.82;;;;;;;-1.72;100.00;96425.63;1020517;28;20302;-76
2020/12/20 01:17:20;;;;;;;20.63;15.77;;;;;;;-1.74;100.00;96421.38;1032625;28;20349;-76
2020/12/20 01:17:50;;;;;;;20.13;15.38;;;;;;;-1.69;100.00;96428.16;1025311;28;20656;-76
2020/12/20 01:18:21;;;;;;;20.23;15.57;;;;;;;-1.78;100.00;96431.69;1025520;29;20078;-76
2020/12/20 01:18:53;;;;;;;23.85;17.08;;;;;;;-1.78;100.00;96425.72;1028890;28;20128;-76
2020/12/20 01:19:23;;;;;;;21.58;16.10;;;;;;;-1.73;100.00;96429.06;1024956;28;20266;-76
2020/12/20 01:19:54;;;;;;;25.23;18.52;;;;;;;-1.71;100.00;96424.72;1036978;28;20288;-76
2020/12/20 01:20:25;;;;;;;19.13;15.25;;;;;;;-1.68;100.00;96421.28;1029111;28;20121;-76
2020/12/20 01:20:56;;;;;;;22.27;16.73;;;;;;;-1.77;100.00;96425.66;1036901;28;20256;-76
2020/12/20 01:21:27;;;;;;;23.63;16.35;;;;;;;-1.81;100.00;96413.75;1033076;28;20479;-76
2020/12/20 01:21:59;;;;;;;20.40;16.23;;;;;;;-1.74;100.00;96423.97;1033198;28;20477;-76
2020/12/20 01:22:30;;;;;;;22.38;17.45;;;;;;;-1.76;100.00;96406.00;1037373;28;20204;-76
2020/12/20 01:23:02;;;;;;;18.27;15.20;;;;;;;-1.67;100.00;96418.72;1025016;29;20329;-76
2020/12/20 01:23:32;;;;;;;21.58;16.90;;;;;;;-1.74;100.00;96429.09;1025054;29;20263;-75
2020/12/20 01:24:03;;;;;;;19.42;15.25;;;;;;;-1.71;100.00;96427.31;1025192;29;20632;-76
2020/12/20 01:24:34;;;;;;;21.52;16.67;;;;;;;-1.66;100.00;96429.81;1033271;28;20544;-76
2020/12/20 01:25:05;;;;;;;21.88;16.73;;;;;;;-1.69;100.00;96419.56;1037067;28;20109;-76
2020/12/20 01:25:36;;;;;;;21.48;15.80;;;;;;;-1.72;100.00;96412.78;1029150;28;20333;-75
2020/12/20 01:26:07;;;;;;;21.88;16.23;;;;;;;-1.64;100.00;96421.22;1033005;28;20026;-76
2020/12/20 01:26:38;;;;;;;16.23;13.63;;;;;;;-1.60;100.00;96427.16;1037395;28;20025;-76
2020/12/20 01:27:09;;;;;;;16.63;13.35;;;;;;;-1.55;100.00;96425.38;1037151;28;20151;-76
2020/12/20 01:27:40;;;;;;;18.73;14.52;;;;;;;-1.72;100.00;96427.34;1024989;29;20118;-76
2020/12/20 01:28:10;;;;;;;17.52;14.77;;;;;;;-1.81;100.00;96421.44;1032733;28;20830;-76
2020/12/20 01:28:41;;;;;;;20.50;16.00;;;;;;;-1.65;100.00;96423.78;1024486;28;20397;-76
2020/12/20 01:29:13;;;;;;;20.45;15.77;;;;;;;-1.68;100.00;96418.72;1036594;28;20033;-76
2020/12/20 01:29:44;;;;;;;21.02;15.02;;;;;;;-1.69;100.00;96415.31;1028575;28;20033;-76
2020/12/20 01:30:15;;;;;;;21.00;15.90;;;;;;;-1.54;100.00;96429.63;1032552;28;20630;-76
2020/12/20 01:30:46;;;;;;;19.70;15.30;;;;;;;-1.59;100.00;96428.88;1032379;28;20550;-76
2020/12/20 01:31:16;;;;;;;19.48;14.90;;;;;;;-1.63;100.00;96427.22;1028385;28;20273;-76
2020/12/20 01:31:49;;;;;;;23.88;17.60;;;;;;;-1.66;100.00;96425.53;1036552;28;20022;-76
2020/12/20 01:32:20;;;;;;;18.85;15.13;;;;;;;-1.65;100.00;96411.81;1028586;28;20038;-76
2020/12/20 01:32:51;;;;;;;25.20;16.00;;;;;;;-1.78;100.00;96403.44;1032532;28;20344;-76
2020/12/20 01:33:21;;;;;;;18.67;14.25;;;;;;;-1.79;100.00;96417.13;1028397;28;20113;-76
2020/12/20 01:33:53;;;;;;;24.75;17.48;;;;;;;-1.82;100.00;96414.63;1024511;28;20129;-76
2020/12/20 01:34:23;;;;;;;23.52;17.35;;;;;;;-1.74;100.00;96424.81;1032563;28;20054;-76
2020/12/20 01:34:54;;;;;;;25.17;18.65;;;;;;;-1.72;100.00;96429.91;1028517;28;20268;-76
2020/12/20 01:35:25;;;;;;;21.38;16.42;;;;;;;-1.65;100.00;96423.78;1032424;28;20390;-76
2020/12/20 01:35:56;;;;;;;23.75;17.08;;;;;;;-1.72;100.00;96423.06;1032576;28;20050;-76
2020/12/20 01:36:29;;;;;;;23.10;16.60;;;;;;;-1.70;100.00;96423.88;1028561;28;20027;-76
2020/12/20 01:37:01;;;;;;;23.67;17.85;;;;;;;-1.72;100.00;96411.94;1040611;28;20029;-76
2020/12/20 01:37:32;;;;;;;19.98;16.25;;;;;;;-1.72;100.00;96417.06;1024367;28;20307;-76
2020/12/20 01:38:02;;;;;;;21.68;16.00;;;;;;;-1.67;100.00;96421.28;1032563;28;20340;-76
2020/12/20 01:38:33;;;;;;;21.23;15.40;;;;;;;-1.68;100.00;96422.13;1036622;28;20458;-76
2020/12/20 01:39:04;;;;;;;22.77;17.20;;;;;;;-1.66;100.00;96422.97;1028313;28;20392;-76
2020/12/20 01:39:35;;;;;;;22.05;16.08;;;;;;;-1.67;100.00;96415.25;1028612;28;20022;-76
2020/12/20 01:40:05;;;;;;;21.25;16.73;;;;;;;-1.59;100.00;96418.59;1024581;28;20439;-76
2020/12/20 01:40:36;;;;;;;20.85;16.45;;;;;;;-1.62;100.00;96418.63;1032506;28;20132;-76
2020/12/20 01:41:07;;;;;;;21.92;16.20;;;;;;;-1.53;100.00;96422.78;1024431;28;20023;-76
2020/12/20 01:41:38;;;;;;;17.00;14.05;;;;;;;-1.57;100.00;96417.69;1028562;28;20761;-76
2020/12/20 01:42:10;;;;;;;21.00;16.40;;;;;;;-1.59;100.00;96418.59;1028515;28;20018;-76
2020/12/20 01:42:41;;;;;;;22.33;16.45;;;;;;;-1.66;100.00;96411.84;1028514;28;20026;-76
2020/12/20 01:43:12;;;;;;;23.38;16.67;;;;;;;-1.60;100.00;96409.16;1036386;28;20319;-76
2020/12/20 01:43:46;;;;;;;18.33;14.88;;;;;;;-1.70;100.00;96400.75;1036636;28;20022;-76
2020/12/20 01:44:18;;;;;;;20.35;15.30;;;;;;;-1.74;100.00;96398.28;1032442;28;20293;-76
2020/12/20 01:44:48;;;;;;;20.58;16.02;;;;;;;-1.65;100.00;96405.81;1024556;29;20251;-76
2020/12/20 01:45:19;;;;;;;17.20;13.75;;;;;;;-1.67;100.00;96399.84;1028256;28;20663;-76
2020/12/20 01:45:50;;;;;;;19.60;14.70;;;;;;;-1.69;100.00;96412.75;1032519;28;20019;-76
2020/12/20 01:46:22;;;;;;;20.98;14.75;;;;;;;-1.67;100.00;96410.13;1024468;29;20349;-76
2020/12/20 01:46:54;;;;;;;19.25;14.85;;;;;;;-1.70;100.00;96407.63;1032415;28;20405;-76
2020/12/20 01:47:26;;;;;;;19.20;13.60;;;;;;;-1.76;100.00;96388.84;1020479;28;20264;-76
2020/12/20 01:47:58;;;;;;;18.26;14.36;;;;;;;-1.68;100.00;96417.00;1036584;28;20649;-76
2020/12/20 01:48:29;;;;;;;19.10;14.52;;;;;;;-1.70;100.00;96394.78;1028387;28;20035;-76
2020/12/20 01:48:59;;;;;;;20.58;16.38;;;;;;;-1.66;100.00;96404.13;1028415;28;20813;-76
2020/12/20 01:49:30;;;;;;;20.08;13.48;;;;;;;-1.63;100.00;96411.81;1032464;28;20328;-76
2020/12/20 01:50:05;;;;;;;20.92;15.38;;;;;;;-1.64;100.00;96410.09;1020609;28;20404;-76
2020/12/20 01:50:36;;;;;;;20.77;15.50;;;;;;;-1.61;100.00;96410.06;1024499;29;20480;-76
2020/12/20 01:51:07;;;;;;;19.98;15.43;;;;;;;-1.65;100.00;96398.09;1032235;28;20258;-76
2020/12/20 01:51:38;;;;;;;17.50;13.85;;;;;;;-1.61;100.00;96410.91;1032389;28;20387;-76
2020/12/20 01:52:09;;;;;;;16.58;13.68;;;;;;;-1.62;100.00;96411.75;1020445;28;20266;-76
2020/12/20 01:52:40;;;;;;;18.25;14.38;;;;;;;-1.67;100.00;96405.88;1032518;28;20494;-76
2020/12/20 01:53:12;;;;;;;15.50;12.25;;;;;;;-1.59;100.00;96406.59;1028368;28;20262;-76
2020/12/20 01:53:43;;;;;;;19.50;13.75;;;;;;;-1.61;100.00;96394.66;1028414;28;20058;-76
2020/12/20 01:54:14;;;;;;;19.83;14.85;;;;;;;-1.54;100.00;96409.06;1024408;28;20307;-75
2020/12/20 01:54:45;;;;;;;19.13;14.38;;;;;;;-1.55;100.00;96414.25;1024482;29;20106;-76
2020/12/20 01:55:18;;;;;;;22.10;15.73;;;;;;;-1.55;100.00;96409.97;1024218;28;20031;-76
2020/12/20 01:55:49;;;;;;;18.73;15.07;;;;;;;-1.54;100.00;96408.22;1032423;28;20025;-76
2020/12/20 01:56:19;;;;;;;17.25;13.98;;;;;;;-1.60;100.00;96406.59;1032448;28;20271;-76
2020/12/20 01:56:50;;;;;;;18.05;13.27;;;;;;;-1.54;100.00;96410.78;1032614;28;20029;-76
2020/12/20 01:57:21;;;;;;;18.90;14.48;;;;;;;-1.57;100.00;96416.84;1028273;28;20423;-76
2020/12/20 01:57:53;;;;;;;19.35;14.50;;;;;;;-1.67;100.00;96411.00;1024378;28;20563;-76
2020/12/20 01:58:23;;;;;;;18.50;14.63;;;;;;;-1.68;100.00;96413.59;1024462;29;20110;-76
2020/12/20 01:58:54;;;;;;;17.90;14.38;;;;;;;-1.68;100.00;96413.59;1028353;28;20258;-76
2020/12/20 01:59:25;;;;;;;21.20;16.33;;;;;;;-1.60;100.00;96415.16;1020408;29;20034;-76
2020/12/20 01:59:56;;;;;;;20.13;15.75;;;;;;;-1.64;100.00;96422.94;1024665;29;20089;-76
2020/12/20 02:00:27;;;;;;;18.10;14.63;;;;;;;-1.67;100.00;96418.72;1032475;28;20050;-76
2020/12/20 02:00:58;;;;;;;20.17;16.50;;;;;;;-1.66;100.00;96417.81;1032340;28;20022;-76
2020/12/20 02:01:30;;;;;;;18.08;14.43;;;;;;;-1.63;100.00;96416.94;1028409;28;20274;-76
2020/12/20 02:02:01;;;;;;;19.13;15.65;;;;;;;-1.63;100.00;96414.38;1028358;28;20034;-76
2020/12/20 02:02:32;;;;;;;21.30;16.65;;;;;;;-1.70;100.00;96399.91;1032468;28;20356;-76
2020/12/20 02:03:03;;;;;;;18.50;14.30;;;;;;;-1.68;100.00;96426.44;1036373;28;20022;-76
2020/12/20 02:03:34;;;;;;;18.30;14.02;;;;;;;-1.72;100.00;96425.63;1028416;28;20443;-76
2020/12/20 02:04:05;;;;;;;16.83;14.38;;;;;;;-1.66;100.00;96416.97;1024437;29;20263;-76
2020/12/20 02:04:36;;;;;;;17.63;14.35;;;;;;;-1.71;100.00;96422.16;1032404;28;20262;-76
2020/12/20 02:05:06;;;;;;;18.70;15.30;;;;;;;-1.74;100.00;96418.81;1028278;28;20113;-76
2020/12/20 02:05:37;;;;;;;18.35;15.05;;;;;;;-1.72;100.00;96424.78;1024407;28;20027;-76
2020/12/20 02:06:12;;;;;;;19.17;14.98;;;;;;;-1.68;100.00;96424.69;1032428;28;20022;-76
2020/12/20 02:06:44;;;;;;;18.25;13.95;;;;;;;-1.71;100.00;96423.91;1028390;28;20026;-76
2020/12/20 02:07:14;;;;;;;19.13;15.45;;;;;;;-1.66;100.00;96422.97;1024258;29;20263;-76
2020/12/20 02:07:47;;;;;;;20.63;15.70;;;;;;;-1.66;100.00;96412.69;1024468;29;20290;-76
2020/12/20 02:08:18;;;;;;;16.40;13.50;;;;;;;-1.59;100.00;96422.00;1028370;28;20364;-76
2020/12/20 02:08:49;;;;;;;18.55;14.05;;;;;;;-1.64;100.00;96425.50;1024373;28;20269;-76
2020/12/20 02:09:20;;;;;;;16.85;13.82;;;;;;;-1.65;100.00;96426.38;1032316;28;20507;-76
2020/12/20 02:09:51;;;;;;;16.42;13.32;;;;;;;-1.62;100.00;96426.34;1020511;28;20032;-76
2020/12/20 02:10:22;;;;;;;17.70;13.88;;;;;;;-1.71;100.00;96416.19;1028359;28;20328;-76
2020/12/20 02:11:03;;;;;;;17.50;13.98;;;;;;;-1.78;100.00;96412.88;1020452;29;20186;-76
2020/12/20 02:11:34;;;;;;;19.08;15.05;;;;;;;-1.68;100.00;96429.00;1028273;28;20029;-76
2020/12/20 02:12:05;;;;;;;17.65;13.13;;;;;;;-1.68;100.00;96419.56;1020174;28;20270;-76
2020/12/20 02:12:36;;;;;;;18.80;14.25;;;;;;;-1.70;100.00;96418.75;1036379;28;20030;-75
2020/12/20 02:13:07;;;;;;;16.92;14.18;;;;;;;-1.61;100.00;96425.47;1020459;29;20259;-76
2020/12/20 02:13:40;;;;;;;17.10;14.68;;;;;;;-1.57;100.00;96427.97;1032302;28;20027;-76
2020/12/20 02:14:11;;;;;;;22.75;16.17;;;;;;;-1.54;100.00;96423.66;1024373;28;20363;-76
2020/12/20 02:14:42;;;;;;;20.38;16.23;;;;;;;-1.57;100.00;96422.81;1024375;28;20267;-76
2020/12/20 02:15:13;;;;;;;20.40;16.20;;;;;;;-1.52;100.00;96421.91;1024100;29;20023;-76
2020/12/20 02:15:44;;;;;;;20.25;15.40;;;;;;;-1.61;100.00;96418.59;1028372;28;20447;-76
2020/12/20 02:16:16;;;;;;;18.20;14.55;;;;;;;-1.65;100.00;96421.22;1028385;28;20258;-76
2020/12/20 02:16:47;;;;;;;20.85;16.10;;;;;;;-1.63;100.00;96416.94;1028367;28;20774;-76
2020/12/20 02:17:17;;;;;;;17.48;13.73;;;;;;;-1.64;100.00;96416.06;1028215;28;20262;-76
2020/12/20 02:17:48;;;;;;;18.45;13.93;;;;;;;-1.59;100.00;96416.03;1032478;28;20026;-76
2020/12/20 02:18:19;;;;;;;16.60;12.95;;;;;;;-1.49;100.00;96416.72;1032477;28;20487;-76
2020/12/20 02:18:50;;;;;;;19.77;16.15;;;;;;;-1.49;100.00;96414.16;1016530;29;20021;-76
2020/12/20 02:19:21;;;;;;;19.70;15.50;;;;;;;-1.44;100.00;96418.34;1024591;28;20027;-76
2020/12/20 02:19:52;;;;;;;18.30;15.27;;;;;;;-1.43;100.00;96421.75;1032386;28;20261;-76
2020/12/20 02:20:23;;;;;;;16.17;13.25;;;;;;;-1.46;100.00;96414.13;1036464;28;20665;-76
2020/12/20 02:20:54;;;;;;;18.77;14.90;;;;;;;-1.48;100.00;96415.84;1028154;28;20125;-76
2020/12/20 02:21:25;;;;;;;18.77;14.20;;;;;;;-1.46;100.00;96416.69;1028343;28;20038;-76
2020/12/20 02:21:57;;;;;;;16.50;13.52;;;;;;;-1.40;100.00;96416.59;1032401;28;20026;-76
2020/12/20 02:22:28;;;;;;;15.50;12.68;;;;;;;-1.40;100.00;96414.00;1032419;28;20262;-76